MKU469 PHNL-PHOG
Flight info
| Callsign | MKU469 |
|---|---|
| Flight time | 0h 24m |
| Altitude | 15000 |
| Route | PALAY3 LNY CAMPS4 |
| Aircraft | DH8D/M-SDE2E3FGRY/H |
Departure
| Time | 2026-04-21 22:52 |
|---|---|
| Airport | Daniel K. Inouye International Airport (PHNL) |
Arrival
| Time | 2026-04-21 23:16 |
|---|---|
| Airport | Kahului International Airport (PHOG) |
| Time | Latitude | Longitude | Altitude | Speed | Heading |
|---|---|---|---|---|---|
| 2026-04-21 22:27 | 21.33313 | -157.92467 | 31 ft | 0 kts | 98° |
| 2026-04-21 22:35 | 21.33313 | -157.92465 | 31 ft | 0 kts | 98° |
| 2026-04-21 22:36 | 21.33316 | -157.92490 | 31 ft | 2 kts | 99° |
| 2026-04-21 22:36 | 21.33318 | -157.92505 | 31 ft | 2 kts | 99° |
| 2026-04-21 22:36 | 21.33321 | -157.92520 | 31 ft | 2 kts | 99° |
| 2026-04-21 22:37 | 21.33323 | -157.92537 | 31 ft | 2 kts | 99° |
| 2026-04-21 22:37 | 21.33328 | -157.92552 | 31 ft | 2 kts | 127° |
| 2026-04-21 22:37 | 21.33339 | -157.92561 | 31 ft | 2 kts | 160° |
| 2026-04-21 22:37 | 21.33351 | -157.92563 | 31 ft | 1 kts | 188° |
| 2026-04-21 22:38 | 21.33353 | -157.92563 | 31 ft | 0 kts | 188° |
| 2026-04-21 22:39 | 21.33343 | -157.92564 | 31 ft | 6 kts | 188° |
| 2026-04-21 22:39 | 21.33283 | -157.92572 | 30 ft | 9 kts | 187° |
| 2026-04-21 22:39 | 21.33227 | -157.92580 | 30 ft | 6 kts | 187° |
| 2026-04-21 22:40 | 21.33218 | -157.92581 | 30 ft | 0 kts | 188° |
| 2026-04-21 22:43 | 21.33204 | -157.92583 | 30 ft | 5 kts | 188° |
| 2026-04-21 22:43 | 21.33168 | -157.92593 | 30 ft | 4 kts | 211° |
| 2026-04-21 22:44 | 21.33134 | -157.92625 | 30 ft | 8 kts | 225° |
| 2026-04-21 22:44 | 21.33097 | -157.92665 | 30 ft | 7 kts | 225° |
| 2026-04-21 22:44 | 21.33065 | -157.92699 | 30 ft | 5 kts | 225° |
| 2026-04-21 22:44 | 21.33039 | -157.92728 | 30 ft | 4 kts | 226° |
| 2026-04-21 22:45 | 21.33017 | -157.92750 | 30 ft | 4 kts | 225° |
| 2026-04-21 22:45 | 21.32975 | -157.92798 | 30 ft | 10 kts | 225° |
| 2026-04-21 22:45 | 21.32925 | -157.92851 | 30 ft | 9 kts | 225° |
| 2026-04-21 22:45 | 21.32879 | -157.92886 | 30 ft | 7 kts | 200° |
| 2026-04-21 22:46 | 21.32835 | -157.92894 | 30 ft | 5 kts | 179° |
| 2026-04-21 22:46 | 21.32800 | -157.92894 | 30 ft | 4 kts | 179° |
| 2026-04-21 22:46 | 21.32772 | -157.92894 | 30 ft | 3 kts | 179° |
| 2026-04-21 22:46 | 21.32708 | -157.92894 | 30 ft | 12 kts | 180° |
| 2026-04-21 22:47 | 21.32637 | -157.92894 | 30 ft | 7 kts | 180° |
| 2026-04-21 22:47 | 21.32627 | -157.92894 | 30 ft | 0 kts | 181° |
| 2026-04-21 22:50 | 21.32596 | -157.92894 | 30 ft | 12 kts | 181° |
| 2026-04-21 22:50 | 21.32532 | -157.92886 | 30 ft | 7 kts | 136° |
| 2026-04-21 22:51 | 21.32525 | -157.92848 | 30 ft | 0 kts | 89° |
| 2026-04-21 22:51 | 21.32524 | -157.92653 | 30 ft | 74 kts | 90° |
| 2026-04-21 22:51 | 21.32520 | -157.91800 | 63 ft | 144 kts | 94° |
| 2026-04-21 22:51 | 21.32384 | -157.90678 | 514 ft | 162 kts | 115° |
| 2026-04-21 22:52 | 21.31611 | -157.89784 | 1078 ft | 173 kts | 142° |
| 2026-04-21 22:52 | 21.30659 | -157.88953 | 1662 ft | 186 kts | 139° |
| 2026-04-21 22:52 | 21.29633 | -157.88049 | 2318 ft | 195 kts | 140° |
| 2026-04-21 22:52 | 21.28612 | -157.87157 | 3095 ft | 194 kts | 140° |
| 2026-04-21 22:53 | 21.27553 | -157.86232 | 3827 ft | 199 kts | 140° |
| 2026-04-21 22:53 | 21.26502 | -157.85319 | 4560 ft | 200 kts | 140° |
| 2026-04-21 22:53 | 21.25448 | -157.84395 | 5277 ft | 202 kts | 140° |
| 2026-04-21 22:53 | 21.24374 | -157.83447 | 6022 ft | 204 kts | 140° |
| 2026-04-21 22:54 | 21.23285 | -157.82487 | 6712 ft | 208 kts | 140° |
| 2026-04-21 22:54 | 21.22166 | -157.81497 | 7414 ft | 211 kts | 140° |
| 2026-04-21 22:54 | 21.21156 | -157.80377 | 8067 ft | 214 kts | 121° |
| 2026-04-21 22:54 | 21.20480 | -157.78984 | 8757 ft | 213 kts | 114° |
| 2026-04-21 22:55 | 21.19829 | -157.77542 | 9360 ft | 218 kts | 115° |
| 2026-04-21 22:55 | 21.19161 | -157.76065 | 9968 ft | 222 kts | 115° |
| 2026-04-21 22:55 | 21.18488 | -157.74577 | 10599 ft | 225 kts | 115° |
| 2026-04-21 22:55 | 21.17805 | -157.73068 | 11250 ft | 229 kts | 115° |
| 2026-04-21 22:56 | 21.17153 | -157.71632 | 11855 ft | 229 kts | 115° |
| 2026-04-21 22:56 | 21.16442 | -157.70064 | 12459 ft | 234 kts | 115° |
| 2026-04-21 22:56 | 21.15728 | -157.68491 | 13106 ft | 236 kts | 115° |
| 2026-04-21 22:56 | 21.15017 | -157.66923 | 13723 ft | 240 kts | 115° |
| 2026-04-21 22:57 | 21.14286 | -157.65315 | 14356 ft | 244 kts | 114° |
| 2026-04-21 22:57 | 21.13528 | -157.63647 | 14746 ft | 260 kts | 114° |
| 2026-04-21 22:57 | 21.12702 | -157.61826 | 14899 ft | 286 kts | 114° |
| 2026-04-21 22:57 | 21.11793 | -157.59819 | 14951 ft | 313 kts | 114° |
| 2026-04-21 22:58 | 21.10855 | -157.57754 | 14958 ft | 329 kts | 115° |
| 2026-04-21 22:58 | 21.09718 | -157.55534 | 14961 ft | 338 kts | 119° |
| 2026-04-21 22:58 | 21.08512 | -157.53397 | 14949 ft | 343 kts | 120° |
| 2026-04-21 22:58 | 21.07275 | -157.51216 | 14950 ft | 346 kts | 120° |
| 2026-04-21 22:59 | 21.06018 | -157.48999 | 14951 ft | 351 kts | 120° |
| 2026-04-21 22:59 | 21.04741 | -157.46747 | 14949 ft | 352 kts | 120° |
| 2026-04-21 22:59 | 21.03462 | -157.44490 | 14951 ft | 355 kts | 120° |
| 2026-04-21 22:59 | 21.02186 | -157.42238 | 14958 ft | 359 kts | 120° |
| 2026-04-21 23:00 | 21.00913 | -157.39992 | 14948 ft | 357 kts | 120° |
| 2026-04-21 23:00 | 20.99616 | -157.37701 | 14949 ft | 360 kts | 120° |
| 2026-04-21 23:00 | 20.98310 | -157.35399 | 14945 ft | 360 kts | 120° |
| 2026-04-21 23:00 | 20.97039 | -157.33156 | 14946 ft | 360 kts | 120° |
| 2026-04-21 23:01 | 20.95725 | -157.30839 | 14948 ft | 362 kts | 120° |
| 2026-04-21 23:01 | 20.94433 | -157.28563 | 14949 ft | 360 kts | 120° |
| 2026-04-21 23:01 | 20.93134 | -157.26276 | 14958 ft | 361 kts | 120° |
| 2026-04-21 23:01 | 20.91841 | -157.23996 | 14952 ft | 361 kts | 120° |
| 2026-04-21 23:02 | 20.90557 | -157.21735 | 14945 ft | 360 kts | 120° |
| 2026-04-21 23:02 | 20.89239 | -157.19415 | 14402 ft | 371 kts | 120° |
| 2026-04-21 23:02 | 20.88035 | -157.17288 | 13972 ft | 351 kts | 121° |
| 2026-04-21 23:02 | 20.86822 | -157.15132 | 13166 ft | 327 kts | 120° |
| 2026-04-21 23:03 | 20.85675 | -157.13098 | 12429 ft | 307 kts | 121° |
| 2026-04-21 23:03 | 20.84606 | -157.11217 | 11740 ft | 289 kts | 121° |
| 2026-04-21 23:03 | 20.83596 | -157.09447 | 11099 ft | 280 kts | 121° |
| 2026-04-21 23:03 | 20.82580 | -157.07666 | 10469 ft | 282 kts | 121° |
| 2026-04-21 23:04 | 20.81584 | -157.05914 | 9882 ft | 284 kts | 121° |
| 2026-04-21 23:04 | 20.80544 | -157.04089 | 9465 ft | 285 kts | 121° |
| 2026-04-21 23:04 | 20.79514 | -157.02283 | 9123 ft | 286 kts | 121° |
| 2026-04-21 23:04 | 20.78477 | -157.00468 | 8809 ft | 287 kts | 121° |
| 2026-04-21 23:05 | 20.77439 | -156.98650 | 8508 ft | 289 kts | 120° |
| 2026-04-21 23:05 | 20.76434 | -156.96765 | 8190 ft | 288 kts | 113° |
| 2026-04-21 23:05 | 20.75819 | -156.94810 | 7900 ft | 274 kts | 104° |
| 2026-04-21 23:05 | 20.75314 | -156.92894 | 7618 ft | 261 kts | 104° |
| 2026-04-21 23:06 | 20.74844 | -156.91106 | 7354 ft | 248 kts | 104° |
| 2026-04-21 23:06 | 20.74385 | -156.89369 | 7102 ft | 238 kts | 104° |
| 2026-04-21 23:06 | 20.73938 | -156.87683 | 6867 ft | 235 kts | 104° |
| 2026-04-21 23:06 | 20.73491 | -156.86014 | 6621 ft | 231 kts | 104° |
| 2026-04-21 23:07 | 20.73050 | -156.84370 | 6383 ft | 232 kts | 104° |
| 2026-04-21 23:07 | 20.72601 | -156.82706 | 6145 ft | 240 kts | 104° |
| 2026-04-21 23:07 | 20.72125 | -156.80951 | 5893 ft | 253 kts | 104° |
| 2026-04-21 23:07 | 20.71619 | -156.79085 | 5613 ft | 264 kts | 104° |
| 2026-04-21 23:08 | 20.71113 | -156.77219 | 5322 ft | 261 kts | 105° |
| 2026-04-21 23:08 | 20.70610 | -156.75356 | 5052 ft | 262 kts | 105° |
| 2026-04-21 23:08 | 20.70109 | -156.73506 | 4779 ft | 259 kts | 105° |
| 2026-04-21 23:08 | 20.69613 | -156.71672 | 4495 ft | 250 kts | 105° |
| 2026-04-21 23:09 | 20.69153 | -156.69959 | 4240 ft | 236 kts | 105° |
| 2026-04-21 23:09 | 20.68691 | -156.68262 | 4001 ft | 237 kts | 104° |
| 2026-04-21 23:09 | 20.68234 | -156.66583 | 3780 ft | 238 kts | 105° |
| 2026-04-21 23:09 | 20.67772 | -156.64877 | 3542 ft | 238 kts | 104° |
| 2026-04-21 23:10 | 20.67323 | -156.63188 | 3302 ft | 238 kts | 104° |
| 2026-04-21 23:10 | 20.66874 | -156.61470 | 3078 ft | 240 kts | 102° |
| 2026-04-21 23:10 | 20.66932 | -156.59758 | 2981 ft | 232 kts | 67° |
| 2026-04-21 23:10 | 20.67970 | -156.58524 | 2965 ft | 225 kts | 30° |
| 2026-04-21 23:11 | 20.69314 | -156.57710 | 2962 ft | 223 kts | 36° |
| 2026-04-21 23:11 | 20.70653 | -156.56859 | 2953 ft | 223 kts | 35° |
| 2026-04-21 23:11 | 20.71968 | -156.55988 | 2953 ft | 223 kts | 30° |
| 2026-04-21 23:11 | 20.73305 | -156.55139 | 2951 ft | 221 kts | 32° |
| 2026-04-21 23:12 | 20.74579 | -156.54248 | 2951 ft | 220 kts | 34° |
| 2026-04-21 23:12 | 20.75859 | -156.53314 | 2951 ft | 222 kts | 34° |
| 2026-04-21 23:12 | 20.77140 | -156.52374 | 2757 ft | 226 kts | 34° |
| 2026-04-21 23:12 | 20.78403 | -156.51448 | 2431 ft | 215 kts | 34° |
| 2026-04-21 23:13 | 20.79585 | -156.50577 | 2148 ft | 202 kts | 34° |
| 2026-04-21 23:13 | 20.80708 | -156.49742 | 1899 ft | 196 kts | 35° |
| 2026-04-21 23:13 | 20.81806 | -156.48923 | 1715 ft | 187 kts | 35° |
| 2026-04-21 23:13 | 20.82828 | -156.48160 | 1449 ft | 171 kts | 34° |
| 2026-04-21 23:14 | 20.83763 | -156.47470 | 1268 ft | 160 kts | 35° |
| 2026-04-21 23:14 | 20.84674 | -156.46782 | 1083 ft | 157 kts | 34° |
| 2026-04-21 23:14 | 20.85539 | -156.46143 | 880 ft | 150 kts | 34° |
| 2026-04-21 23:14 | 20.86406 | -156.45493 | 696 ft | 156 kts | 34° |
| 2026-04-21 23:15 | 20.87280 | -156.44846 | 494 ft | 150 kts | 33° |
| 2026-04-21 23:15 | 20.88120 | -156.44218 | 295 ft | 146 kts | 33° |
| 2026-04-21 23:15 | 20.88945 | -156.43608 | 109 ft | 140 kts | 32° |
| 2026-04-21 23:15 | 20.89664 | -156.43077 | 66 ft | 94 kts | 35° |
| 2026-04-21 23:16 | 20.89910 | -156.42889 | 66 ft | 18 kts | 33° |
| 2026-04-21 23:16 | 20.89993 | -156.42896 | 66 ft | 7 kts | 316° |
| 2026-04-21 23:16 | 20.90013 | -156.42932 | 65 ft | 5 kts | 276° |
| 2026-04-21 23:16 | 20.90004 | -156.42970 | 65 ft | 5 kts | 234° |
| 2026-04-21 23:17 | 20.89969 | -156.43008 | 65 ft | 8 kts | 217° |
| 2026-04-21 23:17 | 20.89913 | -156.43050 | 65 ft | 10 kts | 214° |
| 2026-04-21 23:17 | 20.89853 | -156.43094 | 65 ft | 10 kts | 217° |
| 2026-04-21 23:17 | 20.89789 | -156.43143 | 65 ft | 11 kts | 215° |
| 2026-04-21 23:18 | 20.89723 | -156.43193 | 65 ft | 12 kts | 215° |
| 2026-04-21 23:18 | 20.89652 | -156.43243 | 65 ft | 12 kts | 214° |
| 2026-04-21 23:18 | 20.89579 | -156.43298 | 65 ft | 12 kts | 215° |
| 2026-04-21 23:18 | 20.89506 | -156.43355 | 65 ft | 13 kts | 216° |
| 2026-04-21 23:19 | 20.89443 | -156.43402 | 65 ft | 11 kts | 214° |
| 2026-04-21 23:19 | 20.89380 | -156.43451 | 65 ft | 11 kts | 229° |
| 2026-04-21 23:19 | 20.89354 | -156.43523 | 65 ft | 7 kts | 283° |
| 2026-04-21 23:19 | 20.89383 | -156.43568 | 65 ft | 6 kts | 306° |
| 2026-04-21 23:20 | 20.89403 | -156.43597 | 65 ft | 0 kts | 305° |